sensor_id;sensor_type;location;lat;lon;timestamp;P1;durP1;ratioP1;P2;durP2;ratioP2
64199;SDS011;50516;52.272;5.136;2022-07-09T00:00:38;9.10;;;6.28;;
64199;SDS011;50516;52.272;5.136;2022-07-09T00:03:04;10.20;;;6.68;;
64199;SDS011;50516;52.272;5.136;2022-07-09T00:05:29;11.38;;;6.72;;
64199;SDS011;50516;52.272;5.136;2022-07-09T00:07:58;10.45;;;5.60;;
64199;SDS011;50516;52.272;5.136;2022-07-09T00:10:23;11.13;;;7.07;;
64199;SDS011;50516;52.272;5.136;2022-07-09T00:12:49;10.75;;;6.30;;
64199;SDS011;50516;52.272;5.136;2022-07-09T00:15:14;10.68;;;7.50;;
64199;SDS011;50516;52.272;5.136;2022-07-09T00:17:40;10.20;;;6.70;;
64199;SDS011;50516;52.272;5.136;2022-07-09T00:20:05;10.52;;;6.65;;
64199;SDS011;50516;52.272;5.136;2022-07-09T00:22:32;13.05;;;7.97;;
64199;SDS011;50516;52.272;5.136;2022-07-09T00:24:58;9.25;;;7.18;;
64199;SDS011;50516;52.272;5.136;2022-07-09T00:27:25;13.23;;;7.82;;
64199;SDS011;50516;52.272;5.136;2022-07-09T00:29:50;11.18;;;7.25;;
64199;SDS011;50516;52.272;5.136;2022-07-09T00:32:16;11.85;;;6.60;;
64199;SDS011;50516;52.272;5.136;2022-07-09T00:34:41;15.02;;;7.95;;
64199;SDS011;50516;52.272;5.136;2022-07-09T00:37:07;13.35;;;8.25;;
64199;SDS011;50516;52.272;5.136;2022-07-09T00:39:32;13.38;;;7.93;;
64199;SDS011;50516;52.272;5.136;2022-07-09T00:42:04;12.88;;;8.63;;
64199;SDS011;50516;52.272;5.136;2022-07-09T00:44:30;12.27;;;8.20;;
64199;SDS011;50516;52.272;5.136;2022-07-09T00:46:56;12.93;;;8.77;;
64199;SDS011;50516;52.272;5.136;2022-07-09T00:49:25;13.73;;;9.07;;
64199;SDS011;50516;52.272;5.136;2022-07-09T00:51:53;13.23;;;8.85;;
64199;SDS011;50516;52.272;5.136;2022-07-09T00:54:19;10.40;;;8.68;;
64199;SDS011;50516;52.272;5.136;2022-07-09T00:56:45;10.82;;;7.57;;
64199;SDS011;50516;52.272;5.136;2022-07-09T00:59:11;13.60;;;9.65;;
64199;SDS011;50516;52.272;5.136;2022-07-09T01:01:38;15.45;;;10.32;;
64199;SDS011;50516;52.272;5.136;2022-07-09T01:04:05;13.82;;;9.88;;
64199;SDS011;50516;52.272;5.136;2022-07-09T01:06:31;14.20;;;9.15;;
64199;SDS011;50516;52.272;5.136;2022-07-09T01:08:56;15.82;;;9.40;;
64199;SDS011;50516;52.272;5.136;2022-07-09T01:11:22;11.75;;;8.98;;
64199;SDS011;50516;52.272;5.136;2022-07-09T01:13:47;12.98;;;9.63;;
64199;SDS011;50516;52.272;5.136;2022-07-09T01:16:14;13.55;;;9.65;;
64199;SDS011;50516;52.272;5.136;2022-07-09T01:18:43;12.95;;;10.10;;
64199;SDS011;50516;52.272;5.136;2022-07-09T01:21:10;13.23;;;10.23;;
64199;SDS011;50516;52.272;5.136;2022-07-09T01:23:35;14.13;;;9.30;;
64199;SDS011;50516;52.272;5.136;2022-07-09T01:26:00;15.60;;;10.50;;
64199;SDS011;50516;52.272;5.136;2022-07-09T01:28:26;14.60;;;10.30;;
64199;SDS011;50516;52.272;5.136;2022-07-09T01:30:51;12.95;;;10.23;;
64199;SDS011;50516;52.272;5.136;2022-07-09T01:33:17;13.18;;;10.27;;
64199;SDS011;50516;52.272;5.136;2022-07-09T01:35:42;10.98;;;9.40;;
64199;SDS011;50516;52.272;5.136;2022-07-09T01:38:08;13.07;;;10.73;;
64199;SDS011;50516;52.272;5.136;2022-07-09T01:40:33;22.67;;;13.57;;
64199;SDS011;50516;52.272;5.136;2022-07-09T01:42:58;17.58;;;12.40;;
64199;SDS011;50516;52.272;5.136;2022-07-09T01:45:24;18.50;;;12.90;;
64199;SDS011;50516;52.272;5.136;2022-07-09T01:47:49;15.23;;;11.82;;
64199;SDS011;50516;52.272;5.136;2022-07-09T01:50:15;18.42;;;13.73;;
64199;SDS011;50516;52.272;5.136;2022-07-09T01:52:40;20.48;;;14.40;;
64199;SDS011;50516;52.272;5.136;2022-07-09T01:55:06;16.10;;;12.40;;
64199;SDS011;50516;52.272;5.136;2022-07-09T01:57:31;18.15;;;12.65;;
64199;SDS011;50516;52.272;5.136;2022-07-09T01:59:57;18.63;;;13.50;;
64199;SDS011;50516;52.272;5.136;2022-07-09T02:02:22;18.00;;;13.68;;
64199;SDS011;50516;52.272;5.136;2022-07-09T02:04:48;16.00;;;13.30;;
64199;SDS011;50516;52.272;5.136;2022-07-09T02:07:13;18.30;;;14.02;;
64199;SDS011;50516;52.272;5.136;2022-07-09T02:09:39;16.52;;;14.10;;
64199;SDS011;50516;52.272;5.136;2022-07-09T02:12:05;26.77;;;16.38;;
64199;SDS011;50516;52.272;5.136;2022-07-09T02:14:31;18.13;;;13.70;;
64199;SDS011;50516;52.272;5.136;2022-07-09T02:16:56;18.77;;;13.45;;
64199;SDS011;50516;52.272;5.136;2022-07-09T02:19:22;21.85;;;16.77;;
64199;SDS011;50516;52.272;5.136;2022-07-09T02:21:47;19.27;;;14.30;;
64199;SDS011;50516;52.272;5.136;2022-07-09T02:24:14;17.35;;;12.90;;
64199;SDS011;50516;52.272;5.136;2022-07-09T02:26:39;19.45;;;13.02;;
64199;SDS011;50516;52.272;5.136;2022-07-09T02:29:05;22.50;;;14.77;;
64199;SDS011;50516;52.272;5.136;2022-07-09T02:31:30;20.35;;;14.20;;
64199;SDS011;50516;52.272;5.136;2022-07-09T02:33:55;22.27;;;14.70;;
64199;SDS011;50516;52.272;5.136;2022-07-09T02:36:21;17.13;;;13.80;;
64199;SDS011;50516;52.272;5.136;2022-07-09T02:38:47;20.67;;;15.32;;
64199;SDS011;50516;52.272;5.136;2022-07-09T02:41:13;18.80;;;14.23;;
64199;SDS011;50516;52.272;5.136;2022-07-09T02:43:38;20.95;;;15.93;;
64199;SDS011;50516;52.272;5.136;2022-07-09T02:46:04;22.35;;;15.35;;
64199;SDS011;50516;52.272;5.136;2022-07-09T02:48:30;18.63;;;14.50;;
64199;SDS011;50516;52.272;5.136;2022-07-09T02:50:55;20.52;;;14.63;;
64199;SDS011;50516;52.272;5.136;2022-07-09T02:53:20;19.95;;;15.65;;
64199;SDS011;50516;52.272;5.136;2022-07-09T02:55:46;18.45;;;14.07;;
64199;SDS011;50516;52.272;5.136;2022-07-09T02:58:11;18.55;;;14.25;;
64199;SDS011;50516;52.272;5.136;2022-07-09T03:00:37;17.38;;;14.20;;
64199;SDS011;50516;52.272;5.136;2022-07-09T03:03:06;18.02;;;13.57;;
64199;SDS011;50516;52.272;5.136;2022-07-09T03:05:31;18.70;;;13.85;;
64199;SDS011;50516;52.272;5.136;2022-07-09T03:07:57;18.50;;;13.93;;
64199;SDS011;50516;52.272;5.136;2022-07-09T03:10:23;18.42;;;14.23;;
64199;SDS011;50516;52.272;5.136;2022-07-09T03:12:49;24.00;;;14.93;;
64199;SDS011;50516;52.272;5.136;2022-07-09T03:15:14;21.75;;;16.98;;
64199;SDS011;50516;52.272;5.136;2022-07-09T03:17:42;18.98;;;14.38;;
64199;SDS011;50516;52.272;5.136;2022-07-09T03:20:08;17.60;;;14.90;;
64199;SDS011;50516;52.272;5.136;2022-07-09T03:22:34;17.65;;;13.60;;
64199;SDS011;50516;52.272;5.136;2022-07-09T03:25:00;22.83;;;16.52;;
64199;SDS011;50516;52.272;5.136;2022-07-09T03:27:29;18.75;;;14.63;;
64199;SDS011;50516;52.272;5.136;2022-07-09T03:29:54;19.73;;;14.35;;
64199;SDS011;50516;52.272;5.136;2022-07-09T03:32:20;22.27;;;14.95;;
64199;SDS011;50516;52.272;5.136;2022-07-09T03:34:46;18.95;;;14.68;;
64199;SDS011;50516;52.272;5.136;2022-07-09T03:37:12;15.85;;;13.27;;
64199;SDS011;50516;52.272;5.136;2022-07-09T03:39:38;19.08;;;15.68;;
64199;SDS011;50516;52.272;5.136;2022-07-09T03:42:03;17.55;;;13.82;;
64199;SDS011;50516;52.272;5.136;2022-07-09T03:44:31;18.25;;;13.63;;
64199;SDS011;50516;52.272;5.136;2022-07-09T03:46:57;18.92;;;14.27;;
64199;SDS011;50516;52.272;5.136;2022-07-09T03:49:22;18.50;;;14.68;;
64199;SDS011;50516;52.272;5.136;2022-07-09T03:51:48;16.40;;;12.85;;
64199;SDS011;50516;52.272;5.136;2022-07-09T03:54:13;18.45;;;14.57;;
64199;SDS011;50516;52.272;5.136;2022-07-09T03:56:38;16.55;;;14.20;;
64199;SDS011;50516;52.272;5.136;2022-07-09T03:59:04;18.15;;;14.85;;
64199;SDS011;50516;52.272;5.136;2022-07-09T04:01:29;17.35;;;14.40;;
64199;SDS011;50516;52.272;5.136;2022-07-09T04:03:58;19.27;;;14.35;;
64199;SDS011;50516;52.272;5.136;2022-07-09T04:06:23;18.00;;;13.85;;
64199;SDS011;50516;52.272;5.136;2022-07-09T04:08:49;18.38;;;14.05;;
64199;SDS011;50516;52.272;5.136;2022-07-09T04:11:15;20.50;;;13.73;;
64199;SDS011;50516;52.272;5.136;2022-07-09T04:13:40;22.58;;;15.77;;
64199;SDS011;50516;52.272;5.136;2022-07-09T04:16:06;17.55;;;14.07;;
64199;SDS011;50516;52.272;5.136;2022-07-09T04:18:31;26.23;;;17.65;;
64199;SDS011;50516;52.272;5.136;2022-07-09T04:20:57;17.40;;;14.13;;
64199;SDS011;50516;52.272;5.136;2022-07-09T04:23:22;22.92;;;16.83;;
64199;SDS011;50516;52.272;5.136;2022-07-09T04:25:48;22.33;;;16.35;;
64199;SDS011;50516;52.272;5.136;2022-07-09T04:28:16;23.13;;;16.75;;
64199;SDS011;50516;52.272;5.136;2022-07-09T04:30:42;19.20;;;14.30;;
64199;SDS011;50516;52.272;5.136;2022-07-09T04:33:08;20.08;;;15.02;;
64199;SDS011;50516;52.272;5.136;2022-07-09T04:35:33;23.30;;;16.02;;
64199;SDS011;50516;52.272;5.136;2022-07-09T04:38:00;19.40;;;14.98;;
64199;SDS011;50516;52.272;5.136;2022-07-09T04:40:29;22.50;;;16.30;;
64199;SDS011;50516;52.272;5.136;2022-07-09T04:42:55;19.88;;;14.73;;
64199;SDS011;50516;52.272;5.136;2022-07-09T04:45:20;20.25;;;14.80;;
64199;SDS011;50516;52.272;5.136;2022-07-09T04:47:46;21.20;;;15.90;;
64199;SDS011;50516;52.272;5.136;2022-07-09T04:50:12;18.83;;;15.43;;
64199;SDS011;50516;52.272;5.136;2022-07-09T04:52:38;21.67;;;15.30;;
64199;SDS011;50516;52.272;5.136;2022-07-09T04:55:04;20.58;;;15.23;;
64199;SDS011;50516;52.272;5.136;2022-07-09T04:57:30;20.35;;;15.23;;
64199;SDS011;50516;52.272;5.136;2022-07-09T04:59:59;20.30;;;15.35;;
64199;SDS011;50516;52.272;5.136;2022-07-09T05:02:27;20.23;;;15.50;;
64199;SDS011;50516;52.272;5.136;2022-07-09T05:04:52;19.52;;;15.68;;
64199;SDS011;50516;52.272;5.136;2022-07-09T05:07:18;20.70;;;14.98;;
64199;SDS011;50516;52.272;5.136;2022-07-09T05:09:44;17.40;;;13.88;;
64199;SDS011;50516;52.272;5.136;2022-07-09T05:12:10;17.00;;;14.32;;
64199;SDS011;50516;52.272;5.136;2022-07-09T05:14:36;18.92;;;15.35;;
64199;SDS011;50516;52.272;5.136;2022-07-09T05:17:02;17.38;;;14.27;;
64199;SDS011;50516;52.272;5.136;2022-07-09T05:19:28;18.35;;;14.88;;
64199;SDS011;50516;52.272;5.136;2022-07-09T05:21:53;16.95;;;13.85;;
64199;SDS011;50516;52.272;5.136;2022-07-09T05:24:19;19.67;;;14.55;;
64199;SDS011;50516;52.272;5.136;2022-07-09T05:26:44;20.20;;;15.48;;
64199;SDS011;50516;52.272;5.136;2022-07-09T05:29:09;20.13;;;15.07;;
64199;SDS011;50516;52.272;5.136;2022-07-09T05:31:35;18.35;;;13.50;;
64199;SDS011;50516;52.272;5.136;2022-07-09T05:34:01;20.23;;;13.77;;
64199;SDS011;50516;52.272;5.136;2022-07-09T05:36:27;16.48;;;13.90;;
64199;SDS011;50516;52.272;5.136;2022-07-09T05:38:58;18.77;;;13.80;;
64199;SDS011;50516;52.272;5.136;2022-07-09T05:41:26;16.30;;;13.88;;
64199;SDS011;50516;52.272;5.136;2022-07-09T05:43:53;14.57;;;12.55;;
64199;SDS011;50516;52.272;5.136;2022-07-09T05:46:19;17.50;;;13.82;;
64199;SDS011;50516;52.272;5.136;2022-07-09T05:48:45;17.25;;;13.07;;
64199;SDS011;50516;52.272;5.136;2022-07-09T05:51:11;19.17;;;15.00;;
64199;SDS011;50516;52.272;5.136;2022-07-09T05:53:36;16.90;;;13.73;;
64199;SDS011;50516;52.272;5.136;2022-07-09T05:56:01;16.85;;;13.40;;
64199;SDS011;50516;52.272;5.136;2022-07-09T05:58:27;17.30;;;12.52;;
64199;SDS011;50516;52.272;5.136;2022-07-09T06:00:52;20.75;;;13.90;;
64199;SDS011;50516;52.272;5.136;2022-07-09T06:03:18;17.15;;;13.73;;
64199;SDS011;50516;52.272;5.136;2022-07-09T06:05:43;18.30;;;13.35;;
64199;SDS011;50516;52.272;5.136;2022-07-09T06:08:09;21.25;;;12.45;;
64199;SDS011;50516;52.272;5.136;2022-07-09T06:10:35;15.82;;;12.65;;
64199;SDS011;50516;52.272;5.136;2022-07-09T06:13:01;26.73;;;12.95;;
64199;SDS011;50516;52.272;5.136;2022-07-09T06:15:26;17.15;;;11.02;;
64199;SDS011;50516;52.272;5.136;2022-07-09T06:17:52;16.48;;;11.80;;
64199;SDS011;50516;52.272;5.136;2022-07-09T06:20:18;13.30;;;10.52;;
64199;SDS011;50516;52.272;5.136;2022-07-09T06:22:43;15.93;;;12.00;;
64199;SDS011;50516;52.272;5.136;2022-07-09T06:25:08;14.18;;;11.05;;
64199;SDS011;50516;52.272;5.136;2022-07-09T06:27:34;16.45;;;10.85;;
64199;SDS011;50516;52.272;5.136;2022-07-09T06:30:00;16.92;;;12.68;;
64199;SDS011;50516;52.272;5.136;2022-07-09T06:32:26;13.02;;;10.63;;
64199;SDS011;50516;52.272;5.136;2022-07-09T06:34:51;18.40;;;12.70;;
64199;SDS011;50516;52.272;5.136;2022-07-09T06:37:17;13.18;;;10.88;;
64199;SDS011;50516;52.272;5.136;2022-07-09T06:39:42;13.98;;;10.65;;
64199;SDS011;50516;52.272;5.136;2022-07-09T06:42:10;12.65;;;10.57;;
64199;SDS011;50516;52.272;5.136;2022-07-09T06:44:37;11.68;;;9.18;;
64199;SDS011;50516;52.272;5.136;2022-07-09T06:47:03;16.10;;;9.75;;
64199;SDS011;50516;52.272;5.136;2022-07-09T06:49:29;13.63;;;8.80;;
64199;SDS011;50516;52.272;5.136;2022-07-09T06:51:54;11.23;;;8.98;;
64199;SDS011;50516;52.272;5.136;2022-07-09T06:54:20;13.00;;;8.35;;
64199;SDS011;50516;52.272;5.136;2022-07-09T06:56:46;12.25;;;9.63;;
64199;SDS011;50516;52.272;5.136;2022-07-09T06:59:11;14.48;;;10.23;;
64199;SDS011;50516;52.272;5.136;2022-07-09T07:01:37;13.38;;;9.98;;
64199;SDS011;50516;52.272;5.136;2022-07-09T07:04:05;14.10;;;10.70;;
64199;SDS011;50516;52.272;5.136;2022-07-09T07:06:38;11.80;;;8.60;;
64199;SDS011;50516;52.272;5.136;2022-07-09T07:09:03;12.85;;;7.22;;
64199;SDS011;50516;52.272;5.136;2022-07-09T07:11:29;11.90;;;6.10;;
64199;SDS011;50516;52.272;5.136;2022-07-09T07:13:54;9.90;;;5.47;;
64199;SDS011;50516;52.272;5.136;2022-07-09T07:16:20;7.35;;;4.75;;
64199;SDS011;50516;52.272;5.136;2022-07-09T07:18:45;7.78;;;4.45;;
64199;SDS011;50516;52.272;5.136;2022-07-09T07:21:11;8.15;;;4.80;;
64199;SDS011;50516;52.272;5.136;2022-07-09T07:23:36;9.52;;;4.30;;
64199;SDS011;50516;52.272;5.136;2022-07-09T07:26:01;7.93;;;4.43;;
64199;SDS011;50516;52.272;5.136;2022-07-09T07:28:27;10.13;;;4.65;;
64199;SDS011;50516;52.272;5.136;2022-07-09T07:30:52;8.20;;;4.50;;
64199;SDS011;50516;52.272;5.136;2022-07-09T07:33:18;5.50;;;3.75;;
64199;SDS011;50516;52.272;5.136;2022-07-09T07:35:43;17.10;;;4.70;;
64199;SDS011;50516;52.272;5.136;2022-07-09T07:38:09;8.27;;;4.88;;
64199;SDS011;50516;52.272;5.136;2022-07-09T07:40:34;6.97;;;4.53;;
64199;SDS011;50516;52.272;5.136;2022-07-09T07:43:00;8.07;;;3.80;;
64199;SDS011;50516;52.272;5.136;2022-07-09T07:45:25;7.63;;;4.03;;
64199;SDS011;50516;52.272;5.136;2022-07-09T07:47:51;7.18;;;3.25;;
64199;SDS011;50516;52.272;5.136;2022-07-09T07:50:19;7.10;;;3.78;;
64199;SDS011;50516;52.272;5.136;2022-07-09T07:52:45;5.75;;;3.85;;
64199;SDS011;50516;52.272;5.136;2022-07-09T07:55:10;6.72;;;3.53;;
64199;SDS011;50516;52.272;5.136;2022-07-09T07:57:36;5.20;;;3.13;;
64199;SDS011;50516;52.272;5.136;2022-07-09T08:00:02;6.35;;;2.80;;
64199;SDS011;50516;52.272;5.136;2022-07-09T08:02:28;4.38;;;3.03;;
64199;SDS011;50516;52.272;5.136;2022-07-09T08:04:53;6.07;;;3.17;;
64199;SDS011;50516;52.272;5.136;2022-07-09T08:07:19;7.80;;;3.15;;
64199;SDS011;50516;52.272;5.136;2022-07-09T08:09:44;6.10;;;3.47;;
64199;SDS011;50516;52.272;5.136;2022-07-09T08:12:09;6.03;;;2.85;;
64199;SDS011;50516;52.272;5.136;2022-07-09T08:14:35;5.18;;;3.22;;
64199;SDS011;50516;52.272;5.136;2022-07-09T08:17:00;8.32;;;3.13;;
64199;SDS011;50516;52.272;5.136;2022-07-09T08:19:25;3.75;;;2.58;;
64199;SDS011;50516;52.272;5.136;2022-07-09T08:21:51;5.03;;;2.83;;
64199;SDS011;50516;52.272;5.136;2022-07-09T08:24:16;4.68;;;3.15;;
64199;SDS011;50516;52.272;5.136;2022-07-09T08:26:43;4.25;;;2.30;;
64199;SDS011;50516;52.272;5.136;2022-07-09T08:29:08;7.93;;;3.50;;
64199;SDS011;50516;52.272;5.136;2022-07-09T08:31:33;5.60;;;2.92;;
64199;SDS011;50516;52.272;5.136;2022-07-09T08:33:59;4.53;;;2.38;;
64199;SDS011;50516;52.272;5.136;2022-07-09T08:36:24;5.30;;;2.78;;
64199;SDS011;50516;52.272;5.136;2022-07-09T08:38:50;6.70;;;2.72;;
64199;SDS011;50516;52.272;5.136;2022-07-09T08:41:15;5.10;;;2.60;;
64199;SDS011;50516;52.272;5.136;2022-07-09T08:43:45;4.47;;;2.70;;
64199;SDS011;50516;52.272;5.136;2022-07-09T08:46:15;3.50;;;2.33;;
64199;SDS011;50516;52.272;5.136;2022-07-09T08:48:40;3.30;;;2.20;;
64199;SDS011;50516;52.272;5.136;2022-07-09T08:51:08;4.78;;;2.58;;
64199;SDS011;50516;52.272;5.136;2022-07-09T08:53:34;4.80;;;2.63;;
64199;SDS011;50516;52.272;5.136;2022-07-09T08:56:04;3.15;;;2.10;;
64199;SDS011;50516;52.272;5.136;2022-07-09T08:58:30;3.80;;;2.33;;
64199;SDS011;50516;52.272;5.136;2022-07-09T09:00:56;3.53;;;2.20;;
64199;SDS011;50516;52.272;5.136;2022-07-09T09:03:23;3.08;;;1.92;;
64199;SDS011;50516;52.272;5.136;2022-07-09T09:08:27;4.75;;;2.03;;
64199;SDS011;50516;52.272;5.136;2022-07-09T09:10:57;4.88;;;2.75;;
64199;SDS011;50516;52.272;5.136;2022-07-09T09:13:23;4.60;;;2.08;;
64199;SDS011;50516;52.272;5.136;2022-07-09T09:15:48;5.13;;;2.38;;
64199;SDS011;50516;52.272;5.136;2022-07-09T09:18:13;6.18;;;2.40;;
64199;SDS011;50516;52.272;5.136;2022-07-09T09:20:44;4.80;;;2.75;;
64199;SDS011;50516;52.272;5.136;2022-07-09T09:23:15;5.20;;;2.17;;
64199;SDS011;50516;52.272;5.136;2022-07-09T09:25:41;6.88;;;2.35;;
64199;SDS011;50516;52.272;5.136;2022-07-09T09:28:06;4.63;;;2.58;;
64199;SDS011;50516;52.272;5.136;2022-07-09T09:30:32;4.38;;;2.20;;
64199;SDS011;50516;52.272;5.136;2022-07-09T09:33:00;8.50;;;2.50;;
64199;SDS011;50516;52.272;5.136;2022-07-09T09:35:27;5.47;;;2.33;;
64199;SDS011;50516;52.272;5.136;2022-07-09T09:38:01;5.35;;;2.33;;
64199;SDS011;50516;52.272;5.136;2022-07-09T09:40:26;5.13;;;2.33;;
64199;SDS011;50516;52.272;5.136;2022-07-09T09:42:52;5.15;;;2.28;;
64199;SDS011;50516;52.272;5.136;2022-07-09T09:45:18;3.90;;;2.08;;
64199;SDS011;50516;52.272;5.136;2022-07-09T09:47:45;3.33;;;2.00;;
64199;SDS011;50516;52.272;5.136;2022-07-09T09:50:20;6.20;;;2.20;;
64199;SDS011;50516;52.272;5.136;2022-07-09T09:52:47;6.13;;;2.22;;
64199;SDS011;50516;52.272;5.136;2022-07-09T09:55:14;4.75;;;1.98;;
64199;SDS011;50516;52.272;5.136;2022-07-09T09:57:41;3.17;;;1.95;;
64199;SDS011;50516;52.272;5.136;2022-07-09T10:00:07;3.60;;;1.67;;
64199;SDS011;50516;52.272;5.136;2022-07-09T10:02:34;1.80;;;1.30;;
64199;SDS011;50516;52.272;5.136;2022-07-09T10:05:03;4.22;;;1.63;;
64199;SDS011;50516;52.272;5.136;2022-07-09T10:07:29;3.33;;;1.73;;
64199;SDS011;50516;52.272;5.136;2022-07-09T10:09:57;3.50;;;1.90;;
64199;SDS011;50516;52.272;5.136;2022-07-09T10:12:30;4.60;;;1.63;;
64199;SDS011;50516;52.272;5.136;2022-07-09T10:15:00;6.32;;;2.25;;
64199;SDS011;50516;52.272;5.136;2022-07-09T10:17:26;4.32;;;1.80;;
64199;SDS011;50516;52.272;5.136;2022-07-09T10:19:56;2.45;;;2.08;;
64199;SDS011;50516;52.272;5.136;2022-07-09T10:22:39;3.08;;;1.75;;
64199;SDS011;50516;52.272;5.136;2022-07-09T10:25:06;4.40;;;2.30;;
64199;SDS011;50516;52.272;5.136;2022-07-09T10:27:43;5.95;;;2.40;;
64199;SDS011;50516;52.272;5.136;2022-07-09T10:33:00;5.65;;;1.90;;
64199;SDS011;50516;52.272;5.136;2022-07-09T10:35:26;4.20;;;1.65;;
64199;SDS011;50516;52.272;5.136;2022-07-09T10:37:53;3.30;;;1.77;;
64199;SDS011;50516;52.272;5.136;2022-07-09T10:40:19;5.40;;;2.03;;
64199;SDS011;50516;52.272;5.136;2022-07-09T10:42:59;3.88;;;2.08;;
64199;SDS011;50516;52.272;5.136;2022-07-09T10:45:27;4.85;;;1.70;;
64199;SDS011;50516;52.272;5.136;2022-07-09T10:47:57;4.95;;;1.92;;
64199;SDS011;50516;52.272;5.136;2022-07-09T10:50:24;4.05;;;2.30;;
64199;SDS011;50516;52.272;5.136;2022-07-09T10:52:51;4.05;;;2.15;;
64199;SDS011;50516;52.272;5.136;2022-07-09T10:55:18;4.43;;;2.00;;
64199;SDS011;50516;52.272;5.136;2022-07-09T10:57:44;5.15;;;2.47;;
64199;SDS011;50516;52.272;5.136;2022-07-09T11:00:13;4.80;;;1.98;;
64199;SDS011;50516;52.272;5.136;2022-07-09T11:05:20;6.20;;;1.90;;
64199;SDS011;50516;52.272;5.136;2022-07-09T11:08:05;4.60;;;2.20;;
64199;SDS011;50516;52.272;5.136;2022-07-09T11:12:59;5.45;;;1.95;;
64199;SDS011;50516;52.272;5.136;2022-07-09T11:15:28;5.95;;;2.08;;
64199;SDS011;50516;52.272;5.136;2022-07-09T11:20:21;6.82;;;2.15;;
64199;SDS011;50516;52.272;5.136;2022-07-09T11:22:51;4.00;;;1.80;;
64199;SDS011;50516;52.272;5.136;2022-07-09T11:25:17;7.95;;;2.40;;
64199;SDS011;50516;52.272;5.136;2022-07-09T11:27:43;4.65;;;2.20;;
64199;SDS011;50516;52.272;5.136;2022-07-09T11:30:12;5.15;;;1.92;;
64199;SDS011;50516;52.272;5.136;2022-07-09T11:32:39;8.52;;;2.55;;
64199;SDS011;50516;52.272;5.136;2022-07-09T11:35:06;7.18;;;2.38;;
64199;SDS011;50516;52.272;5.136;2022-07-09T11:37:31;5.47;;;2.22;;
64199;SDS011;50516;52.272;5.136;2022-07-09T11:39:57;6.20;;;2.10;;
64199;SDS011;50516;52.272;5.136;2022-07-09T11:42:22;9.85;;;2.28;;
64199;SDS011;50516;52.272;5.136;2022-07-09T11:45:00;7.85;;;2.25;;
64199;SDS011;50516;52.272;5.136;2022-07-09T11:47:36;4.28;;;2.08;;
64199;SDS011;50516;52.272;5.136;2022-07-09T11:50:14;3.95;;;1.77;;
64199;SDS011;50516;52.272;5.136;2022-07-09T11:52:47;6.32;;;2.30;;
64199;SDS011;50516;52.272;5.136;2022-07-09T11:55:18;5.00;;;2.25;;
64199;SDS011;50516;52.272;5.136;2022-07-09T11:57:58;4.10;;;2.00;;
64199;SDS011;50516;52.272;5.136;2022-07-09T12:00:28;3.33;;;1.83;;
64199;SDS011;50516;52.272;5.136;2022-07-09T12:02:55;6.05;;;1.73;;
64199;SDS011;50516;52.272;5.136;2022-07-09T12:05:26;4.25;;;2.08;;
64199;SDS011;50516;52.272;5.136;2022-07-09T12:07:55;3.80;;;1.98;;
64199;SDS011;50516;52.272;5.136;2022-07-09T12:10:26;5.30;;;2.15;;
64199;SDS011;50516;52.272;5.136;2022-07-09T12:12:56;4.78;;;2.20;;
64199;SDS011;50516;52.272;5.136;2022-07-09T12:15:22;4.35;;;1.90;;
64199;SDS011;50516;52.272;5.136;2022-07-09T12:17:52;4.28;;;2.05;;
64199;SDS011;50516;52.272;5.136;2022-07-09T12:20:19;4.68;;;2.10;;
64199;SDS011;50516;52.272;5.136;2022-07-09T12:22:45;5.78;;;1.77;;
64199;SDS011;50516;52.272;5.136;2022-07-09T12:25:10;5.70;;;1.83;;
64199;SDS011;50516;52.272;5.136;2022-07-09T12:27:36;4.40;;;2.00;;
64199;SDS011;50516;52.272;5.136;2022-07-09T12:30:01;3.20;;;2.00;;
64199;SDS011;50516;52.272;5.136;2022-07-09T12:32:27;4.03;;;2.10;;
64199;SDS011;50516;52.272;5.136;2022-07-09T12:34:52;5.78;;;1.90;;
64199;SDS011;50516;52.272;5.136;2022-07-09T12:37:18;4.07;;;2.10;;
64199;SDS011;50516;52.272;5.136;2022-07-09T12:39:43;5.07;;;1.90;;
64199;SDS011;50516;52.272;5.136;2022-07-09T12:42:09;3.53;;;1.67;;
64199;SDS011;50516;52.272;5.136;2022-07-09T12:44:34;6.13;;;2.20;;
64199;SDS011;50516;52.272;5.136;2022-07-09T12:46:59;5.20;;;2.13;;
64199;SDS011;50516;52.272;5.136;2022-07-09T12:49:25;8.02;;;2.47;;
64199;SDS011;50516;52.272;5.136;2022-07-09T12:51:50;5.68;;;2.35;;
64199;SDS011;50516;52.272;5.136;2022-07-09T12:54:15;5.85;;;2.65;;
64199;SDS011;50516;52.272;5.136;2022-07-09T12:56:41;3.92;;;1.90;;
64199;SDS011;50516;52.272;5.136;2022-07-09T12:59:06;8.13;;;2.50;;
64199;SDS011;50516;52.272;5.136;2022-07-09T13:01:32;9.50;;;2.67;;
64199;SDS011;50516;52.272;5.136;2022-07-09T13:03:57;7.78;;;2.53;;
64199;SDS011;50516;52.272;5.136;2022-07-09T13:06:23;6.10;;;2.60;;
64199;SDS011;50516;52.272;5.136;2022-07-09T13:08:58;9.43;;;2.95;;
64199;SDS011;50516;52.272;5.136;2022-07-09T13:11:29;10.35;;;2.70;;
64199;SDS011;50516;52.272;5.136;2022-07-09T13:13:55;8.65;;;2.58;;
64199;SDS011;50516;52.272;5.136;2022-07-09T13:16:20;8.90;;;3.33;;
64199;SDS011;50516;52.272;5.136;2022-07-09T13:18:46;11.40;;;3.55;;
64199;SDS011;50516;52.272;5.136;2022-07-09T13:21:11;7.63;;;3.30;;
64199;SDS011;50516;52.272;5.136;2022-07-09T13:23:38;9.82;;;2.83;;
64199;SDS011;50516;52.272;5.136;2022-07-09T13:26:03;9.23;;;2.95;;
64199;SDS011;50516;52.272;5.136;2022-07-09T13:28:29;8.07;;;2.55;;
64199;SDS011;50516;52.272;5.136;2022-07-09T13:30:54;10.02;;;2.88;;
64199;SDS011;50516;52.272;5.136;2022-07-09T13:33:20;7.32;;;2.50;;
64199;SDS011;50516;52.272;5.136;2022-07-09T13:35:45;10.20;;;2.70;;
64199;SDS011;50516;52.272;5.136;2022-07-09T13:38:11;12.43;;;3.33;;
64199;SDS011;50516;52.272;5.136;2022-07-09T13:40:36;11.75;;;3.65;;
64199;SDS011;50516;52.272;5.136;2022-07-09T13:43:02;7.25;;;2.35;;
64199;SDS011;50516;52.272;5.136;2022-07-09T13:45:27;10.00;;;2.67;;
64199;SDS011;50516;52.272;5.136;2022-07-09T13:47:53;7.57;;;2.22;;
64199;SDS011;50516;52.272;5.136;2022-07-09T13:50:19;10.52;;;2.80;;
64199;SDS011;50516;52.272;5.136;2022-07-09T13:52:44;6.50;;;2.75;;
64199;SDS011;50516;52.272;5.136;2022-07-09T13:55:10;6.65;;;4.07;;
64199;SDS011;50516;52.272;5.136;2022-07-09T13:57:35;10.95;;;3.38;;
64199;SDS011;50516;52.272;5.136;2022-07-09T14:00:00;7.82;;;2.50;;
64199;SDS011;50516;52.272;5.136;2022-07-09T14:02:26;4.75;;;2.03;;
64199;SDS011;50516;52.272;5.136;2022-07-09T14:04:53;7.43;;;2.80;;
64199;SDS011;50516;52.272;5.136;2022-07-09T14:07:19;12.02;;;2.70;;
64199;SDS011;50516;52.272;5.136;2022-07-09T14:09:44;5.80;;;2.50;;
64199;SDS011;50516;52.272;5.136;2022-07-09T14:12:10;9.68;;;3.20;;
64199;SDS011;50516;52.272;5.136;2022-07-09T14:14:35;9.63;;;3.80;;
64199;SDS011;50516;52.272;5.136;2022-07-09T14:17:01;3.95;;;1.80;;
64199;SDS011;50516;52.272;5.136;2022-07-09T14:19:26;5.75;;;2.33;;
64199;SDS011;50516;52.272;5.136;2022-07-09T14:21:52;5.60;;;3.55;;
64199;SDS011;50516;52.272;5.136;2022-07-09T14:24:17;9.40;;;2.60;;
64199;SDS011;50516;52.272;5.136;2022-07-09T14:26:43;8.52;;;2.53;;
64199;SDS011;50516;52.272;5.136;2022-07-09T14:29:09;9.70;;;2.45;;
64199;SDS011;50516;52.272;5.136;2022-07-09T14:31:35;7.40;;;1.92;;
64199;SDS011;50516;52.272;5.136;2022-07-09T14:34:00;5.28;;;2.20;;
64199;SDS011;50516;52.272;5.136;2022-07-09T14:36:26;3.38;;;1.50;;
64199;SDS011;50516;52.272;5.136;2022-07-09T14:38:51;6.18;;;2.25;;
64199;SDS011;50516;52.272;5.136;2022-07-09T14:41:16;6.03;;;2.20;;
64199;SDS011;50516;52.272;5.136;2022-07-09T14:43:42;9.45;;;2.15;;